createdAt,value
2019-05-15T00:01:19.221Z,5.64
2019-05-15T00:03:54.262Z,5.64
2019-05-15T00:06:21.709Z,5.65
2019-05-15T00:08:48.945Z,5.65
2019-05-15T00:11:16.117Z,5.64
2019-05-15T00:13:44.061Z,5.63
2019-05-15T00:16:11.531Z,5.62
2019-05-15T00:18:39.207Z,5.56
2019-05-15T00:21:14.077Z,5.53
2019-05-15T00:23:41.459Z,5.53
2019-05-15T00:26:09.447Z,5.54
2019-05-15T00:28:43.904Z,5.57
2019-05-15T00:31:10.993Z,5.55
2019-05-15T00:33:39.353Z,5.58
2019-05-15T00:36:13.192Z,5.62
2019-05-15T00:38:40.251Z,5.65
2019-05-15T00:41:09.377Z,5.64
2019-05-15T00:43:42.283Z,5.65
2019-05-15T00:46:09.437Z,5.64
2019-05-15T00:48:36.555Z,5.62
2019-05-15T00:51:03.620Z,5.61
2019-05-15T00:53:30.710Z,5.57
2019-05-15T00:55:58.149Z,5.55
2019-05-15T00:58:36.648Z,5.52
2019-05-15T01:01:03.698Z,5.50
2019-05-15T01:03:30.744Z,5.47
2019-05-15T01:05:58.603Z,5.47
2019-05-15T01:08:33.169Z,5.48
2019-05-15T01:11:00.233Z,5.46
2019-05-15T01:13:28.202Z,5.46
2019-05-15T01:16:06.191Z,5.43
2019-05-15T01:18:33.264Z,5.42
2019-05-15T01:21:00.338Z,5.42
2019-05-15T01:23:28.204Z,5.45
2019-05-15T01:26:02.449Z,5.47
2019-05-15T01:28:29.508Z,5.47
2019-05-15T01:30:59.035Z,5.45
2019-05-15T01:33:31.672Z,5.44
2019-05-15T01:35:59.099Z,5.38
2019-05-15T01:38:38.904Z,5.39
2019-05-15T01:41:12.444Z,5.46
2019-05-15T01:43:39.514Z,5.45
2019-05-15T01:46:08.412Z,5.46
2019-05-15T01:48:41.856Z,5.49
2019-05-15T01:51:09.495Z,5.43
2019-05-15T01:53:44.030Z,5.45
2019-05-15T01:56:11.102Z,5.48
2019-05-15T01:58:38.452Z,5.46
2019-05-15T02:01:19.139Z,5.51
2019-05-15T02:03:52.188Z,5.51
2019-05-15T02:06:19.316Z,5.53
2019-05-15T02:08:46.409Z,5.53
2019-05-15T02:11:13.501Z,5.53
2019-05-15T02:13:40.650Z,5.52
2019-05-15T02:16:08.393Z,5.50
2019-05-15T02:18:42.992Z,5.53
2019-05-15T02:21:10.569Z,5.54
2019-05-15T02:23:45.105Z,5.52
2019-05-15T02:26:12.159Z,5.51
2019-05-15T02:28:39.214Z,5.49
2019-05-15T02:31:10.011Z,5.45
2019-05-15T02:33:45.144Z,5.45
2019-05-15T02:36:12.201Z,5.40
2019-05-15T02:38:41.133Z,5.40
2019-05-15T02:41:19.520Z,5.39
2019-05-15T02:43:53.127Z,5.38
2019-05-15T02:46:20.221Z,5.36
2019-05-15T02:48:48.890Z,5.35
2019-05-15T02:51:26.170Z,5.34
2019-05-15T02:53:53.231Z,5.35
2019-05-15T02:56:20.827Z,5.32
2019-05-15T02:58:56.232Z,5.31
2019-05-15T03:01:34.849Z,5.31
2019-05-15T03:04:01.947Z,5.33
2019-05-15T03:06:29.913Z,5.34
2019-05-15T03:09:05.048Z,5.37
2019-05-15T03:11:32.130Z,5.38
2019-05-15T03:13:59.496Z,5.39
2019-05-15T03:16:30.117Z,5.37
2019-05-15T03:19:05.835Z,5.38
2019-05-15T03:21:32.850Z,5.38
2019-05-15T03:23:59.961Z,5.36
2019-05-15T03:26:29.616Z,5.33
2019-05-15T03:29:05.862Z,5.31
2019-05-15T03:31:49.380Z,5.30
2019-05-15T03:34:20.039Z,5.34
2019-05-15T03:36:45.062Z,5.33
2019-05-15T03:39:19.162Z,5.37
2019-05-15T03:41:54.064Z,5.40
2019-05-15T03:44:21.149Z,5.39
2019-05-15T03:46:49.201Z,5.41
2019-05-15T03:49:23.310Z,5.38
2019-05-15T03:51:50.432Z,5.33
2019-05-15T03:54:18.905Z,5.29
2019-05-15T03:56:52.798Z,5.27
2019-05-15T03:59:19.940Z,5.26
2019-05-15T04:01:49.697Z,5.24
2019-05-15T04:04:25.633Z,5.25
2019-05-15T04:06:52.693Z,5.28
2019-05-15T04:09:19.762Z,5.30
2019-05-15T04:11:49.643Z,5.29
2019-05-15T04:14:21.989Z,5.30
2019-05-15T04:16:49.789Z,5.29
2019-05-15T04:19:29.690Z,5.27
2019-05-15T04:22:03.000Z,5.29
2019-05-15T04:27:31.546Z,5.29
2019-05-15T04:29:59.238Z,5.27
2019-05-15T04:32:39.957Z,5.27
2019-05-15T04:35:12.674Z,5.25
2019-05-15T04:37:41.035Z,5.27
2019-05-15T04:40:14.665Z,5.28
2019-05-15T04:42:41.791Z,5.30
2019-05-15T04:45:10.233Z,5.34
2019-05-15T04:47:49.804Z,5.37
2019-05-15T04:50:23.006Z,5.41
2019-05-15T04:52:50.328Z,5.43
2019-05-15T04:56:09.415Z,5.45
2019-05-15T04:58:43.238Z,5.44
2019-05-15T05:01:10.301Z,5.45
2019-05-15T05:03:39.298Z,5.44
2019-05-15T05:06:58.697Z,5.44
2019-05-15T05:09:32.798Z,5.45
2019-05-15T05:11:59.852Z,5.51
2019-05-15T05:14:28.495Z,5.48
2019-05-15T05:17:02.006Z,5.47
2019-05-15T05:19:29.106Z,5.49
2019-05-15T05:21:58.444Z,5.50
2019-05-15T05:24:31.285Z,5.54
2019-05-15T05:26:58.352Z,5.57
2019-05-15T05:29:25.440Z,5.59
2019-05-15T05:32:00.427Z,5.62
2019-05-15T05:34:28.331Z,5.64
2019-05-15T05:37:02.416Z,5.62
2019-05-15T05:39:29.542Z,5.67
2019-05-15T05:41:58.649Z,5.74
2019-05-15T05:44:31.505Z,5.83
2019-05-15T05:46:58.578Z,5.89
2019-05-15T05:49:25.629Z,5.84
2019-05-15T05:51:52.708Z,5.76
2019-05-15T05:54:19.782Z,5.74
2019-05-15T05:56:48.312Z,6.03
2019-05-15T05:59:22.412Z,6.45
2019-05-15T06:01:49.490Z,6.76
2019-05-15T06:04:18.605Z,6.99
2019-05-15T06:07:06.044Z,7.52
2019-05-15T06:09:27.843Z,7.57
2019-05-15T06:12:02.074Z,7.76
2019-05-15T06:14:29.296Z,7.54
2019-05-15T06:16:58.727Z,7.19
2019-05-15T06:19:31.638Z,6.89
2019-05-15T06:22:00.986Z,6.84
2019-05-15T06:25:19.982Z,7.11
2019-05-15T06:27:55.648Z,7.25
2019-05-15T06:30:31.262Z,7.09
2019-05-15T06:33:13.395Z,7.23
2019-05-15T06:35:45.409Z,7.39
2019-05-15T06:38:12.480Z,7.52
2019-05-15T06:40:39.682Z,7.67
2019-05-15T06:43:08.771Z,7.73
2019-05-15T06:45:41.968Z,7.78
2019-05-15T06:48:09.578Z,7.68
2019-05-15T06:50:49.136Z,7.41
2019-05-15T06:53:28.850Z,7.21
2019-05-15T06:56:07.774Z,7.03
2019-05-15T06:58:44.315Z,6.83
2019-05-15T07:01:11.409Z,6.62
2019-05-15T07:03:39.183Z,6.50
2019-05-15T07:06:13.718Z,6.42
2019-05-15T07:08:40.811Z,6.34
2019-05-15T07:11:08.814Z,6.27
2019-05-15T07:13:43.026Z,6.21
2019-05-15T07:16:10.119Z,6.25
2019-05-15T07:18:38.990Z,6.23
2019-05-15T07:21:20.261Z,6.28
2019-05-15T07:23:51.213Z,6.36
2019-05-15T07:26:18.417Z,6.41
2019-05-15T07:28:45.499Z,6.46
2019-05-15T07:31:12.577Z,6.54
2019-05-15T07:33:43.685Z,6.63
2019-05-15T07:36:15.593Z,6.73
2019-05-15T07:38:42.706Z,6.82
2019-05-15T07:41:10.569Z,6.87
2019-05-15T07:43:49.438Z,6.88
2019-05-15T07:46:23.682Z,6.97
2019-05-15T07:48:50.759Z,7.03
2019-05-15T07:51:18.133Z,7.06
2019-05-15T07:53:53.273Z,6.99
2019-05-15T07:56:20.377Z,6.98
2019-05-15T07:58:52.497Z,7.00
2019-05-15T08:01:23.020Z,7.09
2019-05-15T08:03:59.590Z,7.05
2019-05-15T08:06:25.244Z,7.06
2019-05-15T08:08:52.308Z,7.08
2019-05-15T08:11:24.074Z,7.18
2019-05-15T08:13:54.284Z,7.29
2019-05-15T08:16:21.356Z,7.38
2019-05-15T08:18:48.696Z,7.38
2019-05-15T08:21:15.755Z,7.38
2019-05-15T08:23:42.837Z,7.46
2019-05-15T08:26:09.987Z,7.51
2019-05-15T08:28:38.271Z,7.57
2019-05-15T08:31:12.404Z,7.54
2019-05-15T08:33:39.484Z,7.54
2019-05-15T08:36:08.443Z,7.55
2019-05-15T08:38:45.374Z,7.46
2019-05-15T08:41:15.510Z,7.43
2019-05-15T08:43:48.645Z,7.49
2019-05-15T08:46:22.668Z,7.49
2019-05-15T08:48:49.755Z,7.58
2019-05-15T08:51:19.207Z,7.67
2019-05-15T08:53:45.863Z,7.71
2019-05-15T08:56:14.750Z,7.79
2019-05-15T08:58:48.638Z,7.90
2019-05-15T09:01:23.274Z,7.83
2019-05-15T09:03:50.741Z,7.69
2019-05-15T09:06:22.339Z,7.59
2019-05-15T09:08:53.590Z,7.49
2019-05-15T09:11:21.033Z,7.37
2019-05-15T09:13:53.747Z,7.33
2019-05-15T09:19:03.979Z,7.27
2019-05-15T09:21:31.468Z,7.25
2019-05-15T09:23:59.150Z,7.29
2019-05-15T09:32:30.766Z,7.44
2019-05-15T09:34:59.344Z,7.48
2019-05-15T09:37:33.893Z,7.58
2019-05-15T09:40:08.975Z,7.56
2019-05-15T09:42:43.670Z,7.47
2019-05-15T09:45:51.661Z,7.39
2019-05-15T09:48:19.932Z,7.41
2019-05-15T09:50:54.405Z,7.34
2019-05-15T09:53:21.531Z,7.29
2019-05-15T09:55:49.416Z,7.42
2019-05-15T09:58:30.022Z,7.60
2019-05-15T10:01:02.586Z,7.73
2019-05-15T10:03:29.773Z,7.83
2019-05-15T10:05:56.898Z,7.98
2019-05-15T10:08:24.007Z,8.11
2019-05-15T10:10:51.037Z,8.15
2019-05-15T10:13:18.595Z,8.13
2019-05-15T10:15:58.585Z,8.15
2019-05-15T10:18:31.938Z,8.21
2019-05-15T10:20:59.056Z,8.26
2019-05-15T10:23:28.874Z,8.39
2019-05-15T10:26:04.996Z,8.47
2019-05-15T10:28:32.102Z,8.36
2019-05-15T10:30:59.995Z,8.27
2019-05-15T10:33:34.315Z,8.18
2019-05-15T10:36:01.352Z,8.02
2019-05-15T10:38:28.683Z,8.01
2019-05-15T10:41:11.230Z,7.97
2019-05-15T10:43:46.156Z,8.01
2019-05-15T10:46:19.042Z,7.88
2019-05-15T10:48:52.719Z,7.87
2019-05-15T10:51:19.930Z,7.92
2019-05-15T10:53:48.721Z,7.87
2019-05-15T10:56:25.629Z,7.72
2019-05-15T10:58:52.703Z,7.61
2019-05-15T11:01:19.781Z,7.61
2019-05-15T11:03:49.275Z,7.68
2019-05-15T11:06:25.758Z,7.65
2019-05-15T11:08:52.869Z,7.80
2019-05-15T11:11:19.929Z,7.89
2019-05-15T11:13:47.014Z,8.04
2019-05-15T11:16:14.084Z,8.15
2019-05-15T11:18:41.310Z,8.20
2019-05-15T11:21:18.834Z,8.30
2019-05-15T11:23:51.690Z,8.45
2019-05-15T11:26:19.500Z,8.48
2019-05-15T11:28:53.969Z,8.55
2019-05-15T11:31:24.371Z,8.60
2019-05-15T11:33:59.924Z,8.60
2019-05-15T11:36:28.770Z,8.53
2019-05-15T11:39:08.257Z,8.46
2019-05-15T11:41:41.721Z,8.46
2019-05-15T11:44:08.828Z,8.49
2019-05-15T11:46:38.813Z,8.46
2019-05-15T11:49:14.936Z,8.46
2019-05-15T11:51:42.005Z,8.45
2019-05-15T11:54:09.097Z,8.39
2019-05-15T11:56:38.929Z,8.29
2019-05-15T11:59:15.024Z,8.03
2019-05-15T12:01:42.171Z,8.05
2019-05-15T12:04:09.686Z,8.09
2019-05-15T12:06:38.531Z,8.21
2019-05-15T12:09:12.265Z,8.32
2019-05-15T12:11:41.010Z,8.46
2019-05-15T12:14:14.358Z,8.60
2019-05-15T12:16:41.655Z,8.79
2019-05-15T12:19:10.383Z,9.00
2019-05-15T12:21:43.827Z,9.07
2019-05-15T12:24:10.901Z,9.11
2019-05-15T12:26:39.500Z,9.18
2019-05-15T12:29:13.301Z,9.07
2019-05-15T12:31:40.414Z,9.31
2019-05-15T12:34:09.106Z,9.63
2019-05-15T13:00:00.382Z,11.43
2019-05-15T13:02:28.113Z,11.29
2019-05-15T13:05:03.461Z,11.80
2019-05-15T13:07:30.543Z,12.14
2019-05-15T13:09:58.005Z,12.19
2019-05-15T13:12:25.111Z,12.32
2019-05-15T13:14:52.201Z,12.44
2019-05-15T13:17:19.276Z,12.41
2019-05-15T13:19:48.313Z,12.34
2019-05-15T13:22:24.669Z,12.13
2019-05-15T13:24:58.846Z,11.91
2019-05-15T13:27:31.958Z,11.76
2019-05-15T13:29:59.038Z,11.68
2019-05-15T13:32:28.509Z,11.45
2019-05-15T13:35:01.165Z,11.42
2019-05-15T13:37:30.728Z,11.53
2019-05-15T13:40:07.916Z,11.42
2019-05-15T13:42:35.033Z,11.33
2019-05-15T13:45:02.153Z,11.31
2019-05-15T13:47:29.241Z,11.27
2019-05-15T13:49:58.476Z,11.18
2019-05-15T13:52:31.720Z,11.12
2019-05-15T13:55:25.304Z,11.16
2019-05-15T13:57:55.109Z,11.13
2019-05-15T14:01:03.007Z,10.89
2019-05-15T14:03:30.094Z,10.65
2019-05-15T14:05:58.308Z,10.53
2019-05-15T14:11:11.692Z,10.28
2019-05-15T14:13:39.268Z,10.07
2019-05-15T14:16:19.286Z,9.95
2019-05-15T14:18:53.063Z,9.89
2019-05-15T14:21:20.126Z,9.93
2019-05-15T14:23:58.887Z,9.97
2019-05-15T14:26:32.018Z,9.95
2019-05-15T14:28:59.171Z,10.04
2019-05-15T14:31:27.914Z,10.09
2019-05-15T14:34:05.591Z,10.07
2019-05-15T14:36:32.721Z,9.99
2019-05-15T14:38:59.827Z,9.74
2019-05-15T14:41:29.250Z,9.73
2019-05-15T14:44:17.402Z,9.64
2019-05-15T14:46:45.068Z,9.57
2019-05-15T14:49:12.201Z,9.55
2019-05-15T14:51:39.338Z,9.59
2019-05-15T14:54:08.937Z,9.59
2019-05-15T14:56:41.603Z,9.57
2019-05-15T14:59:09.297Z,9.54
2019-05-15T15:01:48.743Z,9.59
2019-05-15T15:04:28.996Z,9.55
2019-05-15T15:07:05.634Z,9.50
2019-05-15T15:09:32.746Z,9.54
2019-05-15T15:11:59.842Z,9.58
2019-05-15T15:14:28.485Z,9.60
2019-05-15T15:17:04.353Z,9.63
2019-05-15T15:19:33.370Z,9.64
2019-05-15T15:22:00.890Z,9.64
2019-05-15T15:24:28.027Z,9.69
2019-05-15T15:26:55.091Z,9.76
2019-05-15T15:29:22.217Z,9.68
2019-05-15T15:31:58.942Z,9.57
2019-05-15T15:34:38.729Z,9.52
2019-05-15T15:37:15.735Z,9.54
2019-05-15T15:39:42.894Z,9.48
2019-05-15T15:42:18.165Z,9.44
2019-05-15T15:44:45.290Z,9.40
2019-05-15T15:47:12.449Z,9.30
2019-05-15T15:49:39.716Z,9.16
2019-05-15T15:52:08.765Z,9.11
2019-05-15T15:54:45.942Z,9.12
2019-05-15T15:57:13.174Z,9.11
2019-05-15T15:59:40.267Z,9.04
2019-05-15T16:02:08.897Z,8.93
2019-05-15T16:04:48.308Z,8.87
2019-05-15T16:07:25.255Z,8.89
2019-05-15T16:10:00.203Z,8.84
2019-05-15T16:12:27.833Z,8.86
2019-05-15T16:15:03.248Z,8.86
2019-05-15T16:17:30.369Z,8.81
2019-05-15T16:19:57.479Z,8.71
2019-05-15T16:22:24.637Z,8.72
2019-05-15T16:24:52.154Z,8.73
2019-05-15T16:27:19.283Z,8.67
2019-05-15T16:29:46.429Z,8.56
2019-05-15T16:32:13.531Z,8.53
2019-05-15T16:34:40.642Z,8.52
2019-05-15T16:37:08.938Z,8.54
2019-05-15T16:39:42.813Z,8.50
2019-05-15T16:42:09.914Z,8.44
2019-05-15T16:44:38.442Z,8.46
2019-05-15T16:47:15.805Z,8.49
2019-05-15T16:49:42.925Z,8.46
2019-05-15T16:52:10.013Z,8.45
2019-05-15T16:54:38.302Z,8.42
2019-05-15T16:57:12.191Z,8.37
2019-05-15T16:59:39.295Z,8.28
2019-05-15T17:02:08.710Z,8.24
2019-05-15T17:04:45.948Z,8.21
2019-05-15T17:07:21.214Z,8.20
2019-05-15T17:09:48.363Z,8.22
2019-05-15T17:12:15.653Z,8.22
2019-05-15T17:14:42.782Z,8.19
2019-05-15T17:17:09.953Z,8.17
2019-05-15T17:19:37.255Z,8.14
2019-05-15T17:22:04.526Z,8.13
2019-05-15T17:24:31.629Z,8.08
2019-05-15T17:26:59.742Z,8.03
2019-05-15T17:29:29.194Z,7.99
2019-05-15T17:31:56.043Z,7.96
2019-05-15T17:34:23.191Z,8.03
2019-05-15T17:36:50.302Z,8.01
2019-05-15T17:39:20.128Z,8.01
2019-05-15T17:41:48.232Z,8.02
2019-05-15T17:44:15.577Z,7.96
2019-05-15T17:46:43.328Z,7.92
2019-05-15T17:49:15.293Z,7.87
2019-05-15T17:51:39.584Z,7.83
2019-05-15T17:54:08.812Z,7.80
2019-05-15T17:56:35.862Z,7.78
2019-05-15T17:59:02.969Z,7.77
2019-05-15T18:01:30.045Z,7.74
2019-05-15T18:03:59.461Z,7.74
2019-05-15T18:06:28.907Z,7.71
2019-05-15T18:08:55.430Z,7.68
2019-05-15T18:11:22.614Z,7.67
2019-05-15T18:13:49.733Z,7.62
2019-05-15T18:16:18.236Z,7.60
2019-05-15T18:18:47.787Z,7.60
2019-05-15T18:21:14.777Z,7.57
2019-05-15T18:23:41.881Z,7.56
2019-05-15T18:26:09.183Z,7.56
2019-05-15T18:28:38.792Z,7.55
2019-05-15T18:31:05.318Z,7.53
2019-05-15T18:33:32.442Z,7.50
2019-05-15T18:35:59.582Z,7.48
2019-05-15T18:38:28.129Z,7.46
2019-05-15T18:40:55.608Z,7.40
2019-05-15T18:43:22.682Z,7.36
2019-05-15T18:45:49.774Z,7.36
2019-05-15T18:48:18.409Z,7.33
2019-05-15T18:50:45.679Z,7.29
2019-05-15T18:53:12.728Z,7.25
2019-05-15T18:55:39.821Z,7.21
2019-05-15T18:58:08.761Z,7.18
2019-05-15T19:00:36.209Z,7.17
2019-05-15T19:03:18.323Z,7.14
2019-05-15T19:05:32.492Z,7.12
2019-05-15T19:07:59.606Z,7.10
2019-05-15T19:10:28.206Z,7.07
2019-05-15T19:12:57.902Z,7.04
2019-05-15T19:15:24.523Z,7.03
2019-05-15T19:17:51.590Z,7.02
2019-05-15T19:20:19.064Z,7.00
2019-05-15T19:22:48.244Z,6.99
2019-05-15T19:25:17.974Z,6.97
2019-05-15T19:27:45.171Z,6.98
2019-05-15T19:30:14.182Z,6.98
2019-05-15T19:32:41.324Z,7.00
2019-05-15T19:35:08.643Z,7.04
2019-05-15T19:37:38.310Z,7.06
2019-05-15T19:40:11.561Z,7.01
2019-05-15T19:42:39.162Z,6.97
2019-05-15T19:45:08.607Z,6.93
2019-05-15T19:47:38.404Z,6.89
2019-05-15T19:50:05.306Z,6.86
2019-05-15T19:52:32.392Z,6.84
2019-05-15T19:54:59.800Z,6.82
2019-05-15T19:57:28.047Z,6.82
2019-05-15T19:59:57.959Z,6.81
2019-05-15T20:02:24.272Z,6.79
2019-05-15T20:04:51.394Z,6.78
2019-05-15T20:07:18.720Z,6.77
2019-05-15T20:09:47.680Z,6.75
2019-05-15T20:12:14.823Z,6.75
2019-05-15T20:14:42.188Z,6.75
2019-05-15T20:17:09.362Z,6.75
2019-05-15T20:19:38.274Z,6.76
2019-05-15T20:22:05.384Z,6.71
2019-05-15T20:24:32.474Z,6.67
2019-05-15T20:26:59.600Z,6.65
2019-05-15T20:29:28.829Z,6.66
2019-05-15T20:31:55.944Z,6.65
2019-05-15T20:34:24.788Z,6.60
2019-05-15T20:36:51.890Z,6.57
2019-05-15T20:39:18.968Z,6.55
2019-05-15T20:41:46.059Z,6.51
2019-05-15T20:44:13.140Z,6.50
2019-05-15T20:46:40.257Z,6.48
2019-05-15T20:49:08.567Z,6.48
2019-05-15T20:51:38.463Z,6.48
2019-05-15T20:54:04.944Z,6.46
2019-05-15T20:56:32.049Z,6.39
2019-05-15T20:58:59.107Z,6.34
2019-05-15T21:01:28.582Z,6.29
2019-05-15T21:03:55.203Z,6.28
2019-05-15T21:06:22.277Z,6.25
2019-05-15T21:08:49.578Z,6.23
2019-05-15T21:11:18.010Z,6.22
2019-05-15T21:13:45.639Z,6.21
2019-05-15T21:16:12.718Z,6.18
2019-05-15T21:18:41.509Z,6.14
2019-05-15T21:21:10.537Z,6.10
2019-05-15T21:23:38.629Z,6.08
2019-05-15T21:26:07.847Z,6.12
2019-05-15T21:28:34.906Z,6.16
2019-05-15T21:31:02.008Z,6.20
2019-05-15T21:33:29.305Z,6.21
2019-05-15T21:35:58.308Z,6.16
2019-05-15T21:38:25.475Z,6.14
2019-05-15T21:40:52.561Z,6.17
2019-05-15T21:43:19.632Z,6.17
2019-05-15T21:45:48.783Z,6.19
2019-05-15T21:48:18.241Z,6.23
2019-05-15T21:50:44.690Z,6.24
2019-05-15T21:53:12.081Z,6.23
2019-05-15T21:55:39.219Z,6.20
2019-05-15T21:58:08.178Z,6.17
2019-05-15T22:00:38.666Z,6.16
2019-05-15T22:03:06.230Z,6.15
2019-05-15T22:05:33.312Z,6.17
2019-05-15T22:08:00.416Z,6.18
2019-05-15T22:10:28.780Z,6.18
2019-05-15T22:12:58.703Z,6.22
2019-05-15T22:15:25.600Z,6.24
2019-05-15T22:17:52.739Z,6.30
2019-05-15T22:20:19.950Z,6.36
2019-05-15T22:22:50.423Z,6.40
2019-05-15T22:25:18.762Z,6.35
2019-05-15T22:27:45.597Z,6.30
2019-05-15T22:30:13.576Z,6.27
2019-05-15T22:32:41.656Z,6.25
2019-05-15T22:35:13.750Z,6.27
2019-05-15T22:37:41.415Z,6.30
2019-05-15T22:40:15.256Z,6.35
2019-05-15T22:42:42.352Z,6.39
2019-05-15T22:45:11.702Z,6.44
2019-05-15T22:47:39.174Z,6.46
2019-05-15T22:50:08.348Z,6.48
2019-05-15T22:52:35.485Z,6.50
2019-05-15T22:55:02.657Z,6.52
2019-05-15T22:57:29.728Z,6.52
2019-05-15T22:59:58.146Z,6.55
2019-05-15T23:02:25.431Z,6.58
2019-05-15T23:04:52.503Z,6.60
2019-05-15T23:07:19.580Z,6.64
2019-05-15T23:09:48.841Z,6.66
2019-05-15T23:12:15.617Z,6.66
2019-05-15T23:14:42.679Z,6.66
2019-05-15T23:17:10.571Z,6.65
2019-05-15T23:19:38.597Z,6.64
2019-05-15T23:22:08.186Z,6.63
2019-05-15T23:24:34.721Z,6.62
2019-05-15T23:27:01.792Z,6.63
2019-05-15T23:29:28.893Z,6.63
2019-05-15T23:31:58.252Z,6.55
2019-05-15T23:34:24.933Z,6.52
2019-05-15T23:36:52.010Z,6.52
2019-05-15T23:39:19.103Z,6.52
2019-05-15T23:41:46.165Z,6.51
2019-05-15T23:44:13.269Z,6.46
2019-05-15T23:46:40.360Z,6.46
2019-05-15T23:49:08.282Z,6.41
2019-05-15T23:51:35.537Z,6.40
2019-05-15T23:54:02.648Z,6.37
2019-05-15T23:56:29.710Z,6.33
2019-05-15T23:58:56.755Z,6.32
